sensor_id;sensor_type;location;lat;lon;timestamp;P1;durP1;ratioP1;P2;durP2;ratioP2
19609;SDS011;9952;47.122;-1.638;2023-02-28T00:02:18;10.90;;;5.13;;
19609;SDS011;9952;47.122;-1.638;2023-02-28T00:06:59;8.70;;;5.10;;
19609;SDS011;9952;47.122;-1.638;2023-02-28T00:11:40;9.00;;;5.03;;
19609;SDS011;9952;47.122;-1.638;2023-02-28T00:16:21;12.60;;;6.10;;
19609;SDS011;9952;47.122;-1.638;2023-02-28T00:21:03;11.33;;;5.27;;
19609;SDS011;9952;47.122;-1.638;2023-02-28T00:25:44;11.67;;;5.57;;
19609;SDS011;9952;47.122;-1.638;2023-02-28T00:30:25;12.93;;;5.50;;
19609;SDS011;9952;47.122;-1.638;2023-02-28T00:35:06;8.20;;;5.30;;
19609;SDS011;9952;47.122;-1.638;2023-02-28T00:39:48;11.70;;;5.07;;
19609;SDS011;9952;47.122;-1.638;2023-02-28T00:44:29;14.63;;;6.17;;
19609;SDS011;9952;47.122;-1.638;2023-02-28T00:49:10;8.40;;;5.37;;
19609;SDS011;9952;47.122;-1.638;2023-02-28T00:53:51;14.67;;;6.77;;
19609;SDS011;9952;47.122;-1.638;2023-02-28T00:58:32;9.80;;;5.63;;
19609;SDS011;9952;47.122;-1.638;2023-02-28T01:03:13;11.37;;;5.57;;
19609;SDS011;9952;47.122;-1.638;2023-02-28T01:07:53;11.33;;;5.63;;
19609;SDS011;9952;47.122;-1.638;2023-02-28T01:12:34;8.20;;;4.97;;
19609;SDS011;9952;47.122;-1.638;2023-02-28T01:17:15;12.67;;;5.97;;
19609;SDS011;9952;47.122;-1.638;2023-02-28T01:21:56;10.90;;;5.77;;
19609;SDS011;9952;47.122;-1.638;2023-02-28T01:26:36;11.70;;;5.90;;
19609;SDS011;9952;47.122;-1.638;2023-02-28T01:31:17;9.43;;;5.80;;
19609;SDS011;9952;47.122;-1.638;2023-02-28T01:36:02;11.10;;;5.93;;
19609;SDS011;9952;47.122;-1.638;2023-02-28T01:40:50;11.20;;;6.10;;
19609;SDS011;9952;47.122;-1.638;2023-02-28T01:45:31;13.20;;;6.50;;
19609;SDS011;9952;47.122;-1.638;2023-02-28T01:50:15;12.87;;;6.23;;
19609;SDS011;9952;47.122;-1.638;2023-02-28T01:54:59;12.37;;;5.93;;
19609;SDS011;9952;47.122;-1.638;2023-02-28T01:59:43;12.30;;;6.10;;
19609;SDS011;9952;47.122;-1.638;2023-02-28T02:05:14;10.97;;;6.17;;
19609;SDS011;9952;47.122;-1.638;2023-02-28T02:09:36;10.87;;;6.27;;
19609;SDS011;9952;47.122;-1.638;2023-02-28T02:14:41;12.37;;;6.30;;
19609;SDS011;9952;47.122;-1.638;2023-02-28T02:35:06;11.10;;;7.00;;
19609;SDS011;9952;47.122;-1.638;2023-02-28T02:39:53;12.70;;;7.07;;
19609;SDS011;9952;47.122;-1.638;2023-02-28T02:44:42;11.73;;;6.00;;
19609;SDS011;9952;47.122;-1.638;2023-02-28T02:49:31;11.43;;;6.97;;
19609;SDS011;9952;47.122;-1.638;2023-02-28T02:54:15;10.83;;;6.97;;
19609;SDS011;9952;47.122;-1.638;2023-02-28T02:59:04;16.87;;;7.00;;
19609;SDS011;9952;47.122;-1.638;2023-02-28T03:03:49;12.83;;;7.13;;
19609;SDS011;9952;47.122;-1.638;2023-02-28T03:08:33;13.70;;;7.10;;
19609;SDS011;9952;47.122;-1.638;2023-02-28T03:18:32;13.73;;;7.37;;
19609;SDS011;9952;47.122;-1.638;2023-02-28T03:23:19;13.93;;;7.37;;
19609;SDS011;9952;47.122;-1.638;2023-02-28T03:28:10;14.23;;;7.57;;
19609;SDS011;9952;47.122;-1.638;2023-02-28T03:32:58;13.93;;;6.80;;
19609;SDS011;9952;47.122;-1.638;2023-02-28T03:37:48;13.70;;;7.63;;
19609;SDS011;9952;47.122;-1.638;2023-02-28T03:42:33;12.03;;;7.03;;
19609;SDS011;9952;47.122;-1.638;2023-02-28T03:47:39;10.90;;;6.83;;
19609;SDS011;9952;47.122;-1.638;2023-02-28T03:52:21;13.40;;;7.53;;
19609;SDS011;9952;47.122;-1.638;2023-02-28T04:02:23;10.57;;;6.93;;
19609;SDS011;9952;47.122;-1.638;2023-02-28T04:07:05;13.77;;;7.97;;
19609;SDS011;9952;47.122;-1.638;2023-02-28T04:11:52;12.70;;;7.63;;
19609;SDS011;9952;47.122;-1.638;2023-02-28T04:16:36;17.70;;;9.07;;
19609;SDS011;9952;47.122;-1.638;2023-02-28T04:21:20;14.30;;;8.13;;
19609;SDS011;9952;47.122;-1.638;2023-02-28T04:26:00;12.73;;;7.70;;
19609;SDS011;9952;47.122;-1.638;2023-02-28T04:30:41;14.80;;;8.77;;
19609;SDS011;9952;47.122;-1.638;2023-02-28T04:35:22;14.17;;;8.33;;
19609;SDS011;9952;47.122;-1.638;2023-02-28T04:40:03;12.77;;;8.00;;
19609;SDS011;9952;47.122;-1.638;2023-02-28T04:44:44;15.73;;;8.17;;
19609;SDS011;9952;47.122;-1.638;2023-02-28T04:49:25;12.90;;;8.00;;
19609;SDS011;9952;47.122;-1.638;2023-02-28T04:54:06;13.40;;;7.70;;
19609;SDS011;9952;47.122;-1.638;2023-02-28T04:58:47;13.43;;;7.90;;
19609;SDS011;9952;47.122;-1.638;2023-02-28T05:03:29;16.40;;;8.37;;
19609;SDS011;9952;47.122;-1.638;2023-02-28T05:08:09;13.23;;;8.17;;
19609;SDS011;9952;47.122;-1.638;2023-02-28T05:12:50;16.80;;;8.07;;
19609;SDS011;9952;47.122;-1.638;2023-02-28T05:17:31;23.57;;;8.63;;
19609;SDS011;9952;47.122;-1.638;2023-02-28T05:22:15;14.03;;;7.43;;
19609;SDS011;9952;47.122;-1.638;2023-02-28T05:26:58;16.37;;;8.70;;
19609;SDS011;9952;47.122;-1.638;2023-02-28T05:31:39;17.60;;;9.43;;
19609;SDS011;9952;47.122;-1.638;2023-02-28T05:36:20;18.10;;;8.23;;
19609;SDS011;9952;47.122;-1.638;2023-02-28T05:41:10;14.23;;;8.60;;
19609;SDS011;9952;47.122;-1.638;2023-02-28T05:45:51;16.37;;;8.93;;
19609;SDS011;9952;47.122;-1.638;2023-02-28T05:50:32;20.87;;;9.20;;
19609;SDS011;9952;47.122;-1.638;2023-02-28T05:55:13;16.47;;;8.20;;
19609;SDS011;9952;47.122;-1.638;2023-02-28T05:59:53;19.57;;;9.23;;
19609;SDS011;9952;47.122;-1.638;2023-02-28T06:04:34;16.20;;;9.27;;
19609;SDS011;9952;47.122;-1.638;2023-02-28T06:09:15;18.23;;;9.23;;
19609;SDS011;9952;47.122;-1.638;2023-02-28T06:13:57;18.97;;;9.43;;
19609;SDS011;9952;47.122;-1.638;2023-02-28T06:18:42;16.83;;;8.97;;
19609;SDS011;9952;47.122;-1.638;2023-02-28T06:23:22;21.10;;;10.20;;
19609;SDS011;9952;47.122;-1.638;2023-02-28T06:28:03;19.97;;;9.47;;
19609;SDS011;9952;47.122;-1.638;2023-02-28T06:32:44;17.03;;;9.67;;
19609;SDS011;9952;47.122;-1.638;2023-02-28T06:37:25;15.43;;;8.80;;
19609;SDS011;9952;47.122;-1.638;2023-02-28T06:42:06;20.13;;;9.27;;
19609;SDS011;9952;47.122;-1.638;2023-02-28T06:46:47;16.97;;;9.10;;
19609;SDS011;9952;47.122;-1.638;2023-02-28T06:51:28;23.00;;;10.70;;
19609;SDS011;9952;47.122;-1.638;2023-02-28T06:56:10;25.40;;;10.00;;
19609;SDS011;9952;47.122;-1.638;2023-02-28T07:00:52;25.07;;;11.27;;
19609;SDS011;9952;47.122;-1.638;2023-02-28T07:05:36;24.37;;;10.40;;
19609;SDS011;9952;47.122;-1.638;2023-02-28T07:10:18;25.53;;;10.87;;
19609;SDS011;9952;47.122;-1.638;2023-02-28T07:14:59;25.30;;;11.13;;
19609;SDS011;9952;47.122;-1.638;2023-02-28T07:19:40;21.83;;;11.03;;
19609;SDS011;9952;47.122;-1.638;2023-02-28T07:24:21;21.80;;;10.40;;
19609;SDS011;9952;47.122;-1.638;2023-02-28T07:29:03;23.73;;;11.13;;
19609;SDS011;9952;47.122;-1.638;2023-02-28T07:33:44;23.03;;;11.20;;
19609;SDS011;9952;47.122;-1.638;2023-02-28T07:38:25;21.03;;;9.97;;
19609;SDS011;9952;47.122;-1.638;2023-02-28T07:43:06;22.97;;;11.40;;
19609;SDS011;9952;47.122;-1.638;2023-02-28T07:47:46;21.73;;;10.43;;
19609;SDS011;9952;47.122;-1.638;2023-02-28T07:52:27;21.63;;;11.00;;
19609;SDS011;9952;47.122;-1.638;2023-02-28T07:57:08;23.37;;;10.77;;
19609;SDS011;9952;47.122;-1.638;2023-02-28T08:01:49;20.13;;;10.77;;
19609;SDS011;9952;47.122;-1.638;2023-02-28T08:06:30;19.83;;;9.87;;
19609;SDS011;9952;47.122;-1.638;2023-02-28T08:11:11;17.40;;;10.03;;
19609;SDS011;9952;47.122;-1.638;2023-02-28T08:15:52;21.47;;;10.13;;
19609;SDS011;9952;47.122;-1.638;2023-02-28T08:20:34;16.67;;;8.80;;
19609;SDS011;9952;47.122;-1.638;2023-02-28T08:25:15;16.93;;;8.70;;
19609;SDS011;9952;47.122;-1.638;2023-02-28T08:29:55;15.63;;;8.97;;
19609;SDS011;9952;47.122;-1.638;2023-02-28T08:34:38;15.73;;;9.60;;
19609;SDS011;9952;47.122;-1.638;2023-02-28T08:39:19;17.70;;;9.17;;
19609;SDS011;9952;47.122;-1.638;2023-02-28T08:44:00;18.03;;;10.07;;
19609;SDS011;9952;47.122;-1.638;2023-02-28T08:48:41;16.13;;;9.13;;
19609;SDS011;9952;47.122;-1.638;2023-02-28T08:53:23;15.00;;;8.57;;
19609;SDS011;9952;47.122;-1.638;2023-02-28T08:58:04;13.90;;;9.27;;
19609;SDS011;9952;47.122;-1.638;2023-02-28T09:02:45;15.67;;;8.10;;
19609;SDS011;9952;47.122;-1.638;2023-02-28T09:07:26;13.50;;;8.03;;
19609;SDS011;9952;47.122;-1.638;2023-02-28T09:12:07;14.70;;;8.53;;
19609;SDS011;9952;47.122;-1.638;2023-02-28T09:16:48;12.67;;;7.53;;
19609;SDS011;9952;47.122;-1.638;2023-02-28T09:21:29;12.03;;;8.33;;
19609;SDS011;9952;47.122;-1.638;2023-02-28T09:26:13;13.83;;;7.63;;
19609;SDS011;9952;47.122;-1.638;2023-02-28T09:30:56;15.83;;;7.87;;
19609;SDS011;9952;47.122;-1.638;2023-02-28T09:35:38;15.57;;;7.03;;
19609;SDS011;9952;47.122;-1.638;2023-02-28T09:40:22;12.63;;;7.53;;
19609;SDS011;9952;47.122;-1.638;2023-02-28T09:45:07;12.23;;;7.10;;
19609;SDS011;9952;47.122;-1.638;2023-02-28T09:50:17;10.90;;;6.00;;
19609;SDS011;9952;47.122;-1.638;2023-02-28T09:55:33;15.80;;;6.17;;
19609;SDS011;9952;47.122;-1.638;2023-02-28T10:00:23;9.07;;;6.03;;
19609;SDS011;9952;47.122;-1.638;2023-02-28T10:05:14;9.30;;;5.63;;
19609;SDS011;9952;47.122;-1.638;2023-02-28T10:10:04;10.07;;;4.60;;
19609;SDS011;9952;47.122;-1.638;2023-02-28T10:15:07;6.67;;;4.63;;
19609;SDS011;9952;47.122;-1.638;2023-02-28T10:25:21;12.80;;;6.67;;
19609;SDS011;9952;47.122;-1.638;2023-02-28T10:30:05;14.47;;;6.17;;
19609;SDS011;9952;47.122;-1.638;2023-02-28T10:39:51;7.77;;;4.50;;
19609;SDS011;9952;47.122;-1.638;2023-02-28T10:44:32;4.43;;;3.20;;
19609;SDS011;9952;47.122;-1.638;2023-02-28T10:49:20;3.60;;;3.00;;
19609;SDS011;9952;47.122;-1.638;2023-02-28T10:54:03;6.10;;;2.53;;
19609;SDS011;9952;47.122;-1.638;2023-02-28T11:03:39;3.57;;;2.37;;
19609;SDS011;9952;47.122;-1.638;2023-02-28T11:08:20;5.87;;;2.17;;
19609;SDS011;9952;47.122;-1.638;2023-02-28T11:13:01;3.53;;;2.60;;
19609;SDS011;9952;47.122;-1.638;2023-02-28T11:17:43;5.03;;;2.03;;
19609;SDS011;9952;47.122;-1.638;2023-02-28T11:22:25;4.13;;;2.17;;
19609;SDS011;9952;47.122;-1.638;2023-02-28T11:27:54;4.70;;;2.40;;
19609;SDS011;9952;47.122;-1.638;2023-02-28T11:36:57;3.97;;;2.30;;
19609;SDS011;9952;47.122;-1.638;2023-02-28T11:57:00;2.97;;;2.30;;
19609;SDS011;9952;47.122;-1.638;2023-02-28T12:12:23;3.10;;;2.37;;
19609;SDS011;9952;47.122;-1.638;2023-02-28T12:22:29;5.13;;;3.00;;
19609;SDS011;9952;47.122;-1.638;2023-02-28T12:27:13;3.63;;;2.73;;
19609;SDS011;9952;47.122;-1.638;2023-02-28T12:32:06;4.60;;;2.90;;
19609;SDS011;9952;47.122;-1.638;2023-02-28T12:37:10;3.20;;;2.57;;
19609;SDS011;9952;47.122;-1.638;2023-02-28T12:42:00;4.07;;;2.67;;
19609;SDS011;9952;47.122;-1.638;2023-02-28T12:46:51;4.03;;;2.60;;
19609;SDS011;9952;47.122;-1.638;2023-02-28T12:51:36;3.87;;;2.97;;
19609;SDS011;9952;47.122;-1.638;2023-02-28T13:01:27;4.80;;;2.97;;
19609;SDS011;9952;47.122;-1.638;2023-02-28T13:11:45;4.83;;;3.27;;
19609;SDS011;9952;47.122;-1.638;2023-02-28T13:16:27;3.67;;;3.13;;
19609;SDS011;9952;47.122;-1.638;2023-02-28T13:21:28;4.97;;;3.10;;
19609;SDS011;9952;47.122;-1.638;2023-02-28T13:26:10;4.10;;;3.10;;
19609;SDS011;9952;47.122;-1.638;2023-02-28T13:35:36;5.30;;;3.80;;
19609;SDS011;9952;47.122;-1.638;2023-02-28T13:40:26;5.87;;;3.13;;
19609;SDS011;9952;47.122;-1.638;2023-02-28T13:45:22;7.53;;;4.17;;
19609;SDS011;9952;47.122;-1.638;2023-02-28T13:50:23;6.87;;;3.73;;
19609;SDS011;9952;47.122;-1.638;2023-02-28T14:00:19;5.07;;;3.80;;
19609;SDS011;9952;47.122;-1.638;2023-02-28T14:09:49;5.00;;;3.17;;
19609;SDS011;9952;47.122;-1.638;2023-02-28T14:29:23;8.20;;;4.17;;
19609;SDS011;9952;47.122;-1.638;2023-02-28T14:34:26;6.63;;;3.33;;
19609;SDS011;9952;47.122;-1.638;2023-02-28T14:39:22;7.40;;;3.53;;
19609;SDS011;9952;47.122;-1.638;2023-02-28T14:49:18;6.40;;;3.47;;
19609;SDS011;9952;47.122;-1.638;2023-02-28T14:54:02;6.37;;;4.00;;
19609;SDS011;9952;47.122;-1.638;2023-02-28T14:58:50;5.50;;;3.70;;
19609;SDS011;9952;47.122;-1.638;2023-02-28T15:03:36;6.03;;;3.60;;
19609;SDS011;9952;47.122;-1.638;2023-02-28T15:08:19;6.23;;;3.37;;
19609;SDS011;9952;47.122;-1.638;2023-02-28T15:13:00;6.23;;;3.50;;
19609;SDS011;9952;47.122;-1.638;2023-02-28T15:17:49;6.03;;;3.97;;
19609;SDS011;9952;47.122;-1.638;2023-02-28T15:22:35;5.67;;;4.03;;
19609;SDS011;9952;47.122;-1.638;2023-02-28T15:27:30;6.27;;;3.60;;
19609;SDS011;9952;47.122;-1.638;2023-02-28T15:37:30;5.83;;;4.23;;
19609;SDS011;9952;47.122;-1.638;2023-02-28T15:42:27;9.37;;;4.67;;
19609;SDS011;9952;47.122;-1.638;2023-02-28T15:47:28;69.10;;;38.80;;
19609;SDS011;9952;47.122;-1.638;2023-02-28T15:52:15;7.40;;;4.90;;
19609;SDS011;9952;47.122;-1.638;2023-02-28T15:57:02;7.53;;;4.30;;
19609;SDS011;9952;47.122;-1.638;2023-02-28T16:11:46;6.47;;;4.87;;
19609;SDS011;9952;47.122;-1.638;2023-02-28T16:16:30;4.60;;;2.60;;
19609;SDS011;9952;47.122;-1.638;2023-02-28T16:21:12;2.97;;;2.50;;
19609;SDS011;9952;47.122;-1.638;2023-02-28T16:25:53;7.33;;;6.37;;
19609;SDS011;9952;47.122;-1.638;2023-02-28T16:30:34;7.67;;;4.60;;
19609;SDS011;9952;47.122;-1.638;2023-02-28T16:35:15;3.43;;;2.90;;
19609;SDS011;9952;47.122;-1.638;2023-02-28T16:39:57;2.93;;;2.47;;
19609;SDS011;9952;47.122;-1.638;2023-02-28T16:44:38;2.80;;;2.53;;
19609;SDS011;9952;47.122;-1.638;2023-02-28T16:49:20;3.30;;;2.50;;
19609;SDS011;9952;47.122;-1.638;2023-02-28T16:54:01;4.57;;;3.20;;
19609;SDS011;9952;47.122;-1.638;2023-02-28T16:58:42;6.07;;;3.43;;
19609;SDS011;9952;47.122;-1.638;2023-02-28T17:03:25;6.33;;;3.70;;
19609;SDS011;9952;47.122;-1.638;2023-02-28T17:08:08;5.23;;;3.30;;
19609;SDS011;9952;47.122;-1.638;2023-02-28T17:12:49;6.33;;;3.63;;
19609;SDS011;9952;47.122;-1.638;2023-02-28T17:17:30;8.80;;;3.90;;
19609;SDS011;9952;47.122;-1.638;2023-02-28T17:22:11;9.27;;;5.50;;
19609;SDS011;9952;47.122;-1.638;2023-02-28T17:26:52;7.10;;;4.53;;
19609;SDS011;9952;47.122;-1.638;2023-02-28T17:31:32;12.93;;;5.87;;
19609;SDS011;9952;47.122;-1.638;2023-02-28T17:36:22;10.00;;;4.53;;
19609;SDS011;9952;47.122;-1.638;2023-02-28T17:41:05;8.70;;;4.97;;
19609;SDS011;9952;47.122;-1.638;2023-02-28T17:45:46;8.30;;;4.60;;
19609;SDS011;9952;47.122;-1.638;2023-02-28T17:50:27;10.87;;;7.13;;
19609;SDS011;9952;47.122;-1.638;2023-02-28T17:55:08;10.20;;;4.83;;
19609;SDS011;9952;47.122;-1.638;2023-02-28T17:59:50;7.47;;;5.00;;
19609;SDS011;9952;47.122;-1.638;2023-02-28T18:04:30;8.33;;;4.33;;
19609;SDS011;9952;47.122;-1.638;2023-02-28T18:09:12;7.40;;;4.80;;
19609;SDS011;9952;47.122;-1.638;2023-02-28T18:13:55;6.10;;;5.07;;
19609;SDS011;9952;47.122;-1.638;2023-02-28T18:18:36;6.87;;;4.57;;
19609;SDS011;9952;47.122;-1.638;2023-02-28T18:23:17;6.83;;;4.90;;
19609;SDS011;9952;47.122;-1.638;2023-02-28T18:28:00;10.47;;;5.90;;
19609;SDS011;9952;47.122;-1.638;2023-02-28T18:32:41;6.80;;;5.07;;
19609;SDS011;9952;47.122;-1.638;2023-02-28T18:37:21;10.57;;;6.63;;
19609;SDS011;9952;47.122;-1.638;2023-02-28T18:42:02;6.97;;;5.23;;
19609;SDS011;9952;47.122;-1.638;2023-02-28T18:46:43;17.27;;;9.67;;
19609;SDS011;9952;47.122;-1.638;2023-02-28T18:51:24;17.07;;;13.00;;
19609;SDS011;9952;47.122;-1.638;2023-02-28T18:56:08;16.00;;;11.47;;
19609;SDS011;9952;47.122;-1.638;2023-02-28T19:00:52;9.13;;;6.73;;
19609;SDS011;9952;47.122;-1.638;2023-02-28T19:05:33;10.20;;;6.37;;
19609;SDS011;9952;47.122;-1.638;2023-02-28T19:10:14;12.67;;;6.90;;
19609;SDS011;9952;47.122;-1.638;2023-02-28T19:14:55;9.97;;;7.30;;
19609;SDS011;9952;47.122;-1.638;2023-02-28T19:19:36;13.43;;;10.70;;
19609;SDS011;9952;47.122;-1.638;2023-02-28T19:24:17;11.40;;;8.13;;
19609;SDS011;9952;47.122;-1.638;2023-02-28T19:29:00;15.50;;;9.23;;
19609;SDS011;9952;47.122;-1.638;2023-02-28T19:33:43;11.40;;;7.70;;
19609;SDS011;9952;47.122;-1.638;2023-02-28T19:38:24;11.63;;;7.10;;
19609;SDS011;9952;47.122;-1.638;2023-02-28T19:43:05;10.00;;;7.07;;
19609;SDS011;9952;47.122;-1.638;2023-02-28T19:47:47;10.83;;;7.57;;
19609;SDS011;9952;47.122;-1.638;2023-02-28T19:52:28;13.10;;;9.10;;
19609;SDS011;9952;47.122;-1.638;2023-02-28T19:57:08;13.30;;;8.77;;
19609;SDS011;9952;47.122;-1.638;2023-02-28T20:01:50;12.27;;;9.17;;
19609;SDS011;9952;47.122;-1.638;2023-02-28T20:06:35;14.50;;;8.73;;
19609;SDS011;9952;47.122;-1.638;2023-02-28T20:11:16;14.47;;;9.80;;
19609;SDS011;9952;47.122;-1.638;2023-02-28T20:15:57;11.27;;;7.70;;
19609;SDS011;9952;47.122;-1.638;2023-02-28T20:20:39;13.77;;;8.90;;
19609;SDS011;9952;47.122;-1.638;2023-02-28T20:25:21;14.43;;;9.13;;
19609;SDS011;9952;47.122;-1.638;2023-02-28T20:30:02;18.07;;;12.70;;
19609;SDS011;9952;47.122;-1.638;2023-02-28T20:34:45;18.13;;;11.37;;
19609;SDS011;9952;47.122;-1.638;2023-02-28T20:39:26;14.93;;;9.67;;
19609;SDS011;9952;47.122;-1.638;2023-02-28T20:44:08;15.60;;;9.07;;
19609;SDS011;9952;47.122;-1.638;2023-02-28T20:48:51;17.47;;;10.07;;
19609;SDS011;9952;47.122;-1.638;2023-02-28T20:53:33;16.10;;;10.27;;
19609;SDS011;9952;47.122;-1.638;2023-02-28T20:58:14;31.03;;;19.60;;
19609;SDS011;9952;47.122;-1.638;2023-02-28T21:02:55;14.17;;;10.67;;
19609;SDS011;9952;47.122;-1.638;2023-02-28T21:07:37;15.40;;;10.43;;
19609;SDS011;9952;47.122;-1.638;2023-02-28T21:12:18;15.27;;;10.77;;
19609;SDS011;9952;47.122;-1.638;2023-02-28T21:16:59;15.87;;;10.33;;
19609;SDS011;9952;47.122;-1.638;2023-02-28T21:21:40;15.80;;;10.90;;
19609;SDS011;9952;47.122;-1.638;2023-02-28T21:26:22;16.03;;;10.97;;
19609;SDS011;9952;47.122;-1.638;2023-02-28T21:31:07;16.57;;;10.90;;
19609;SDS011;9952;47.122;-1.638;2023-02-28T21:35:50;15.67;;;10.57;;
19609;SDS011;9952;47.122;-1.638;2023-02-28T21:40:32;15.97;;;10.87;;
19609;SDS011;9952;47.122;-1.638;2023-02-28T21:45:13;14.67;;;10.47;;
19609;SDS011;9952;47.122;-1.638;2023-02-28T21:49:54;18.03;;;11.60;;
19609;SDS011;9952;47.122;-1.638;2023-02-28T21:54:35;19.03;;;11.10;;
19609;SDS011;9952;47.122;-1.638;2023-02-28T21:59:16;17.47;;;12.07;;
19609;SDS011;9952;47.122;-1.638;2023-02-28T22:03:58;18.00;;;11.83;;
19609;SDS011;9952;47.122;-1.638;2023-02-28T22:08:40;18.17;;;11.37;;
19609;SDS011;9952;47.122;-1.638;2023-02-28T22:13:22;20.47;;;12.30;;
19609;SDS011;9952;47.122;-1.638;2023-02-28T22:18:03;17.53;;;11.43;;
19609;SDS011;9952;47.122;-1.638;2023-02-28T22:22:44;18.07;;;11.67;;
19609;SDS011;9952;47.122;-1.638;2023-02-28T22:27:25;17.10;;;11.40;;
19609;SDS011;9952;47.122;-1.638;2023-02-28T22:32:07;17.57;;;11.70;;
19609;SDS011;9952;47.122;-1.638;2023-02-28T22:36:48;17.60;;;11.70;;
19609;SDS011;9952;47.122;-1.638;2023-02-28T22:41:29;18.07;;;11.63;;
19609;SDS011;9952;47.122;-1.638;2023-02-28T22:46:11;17.87;;;11.93;;
19609;SDS011;9952;47.122;-1.638;2023-02-28T22:50:59;20.13;;;12.13;;
19609;SDS011;9952;47.122;-1.638;2023-02-28T22:55:45;18.53;;;12.27;;
19609;SDS011;9952;47.122;-1.638;2023-02-28T23:00:34;19.07;;;12.13;;
19609;SDS011;9952;47.122;-1.638;2023-02-28T23:05:15;20.93;;;12.43;;
19609;SDS011;9952;47.122;-1.638;2023-02-28T23:09:56;20.73;;;11.93;;
19609;SDS011;9952;47.122;-1.638;2023-02-28T23:14:36;18.43;;;12.37;;
19609;SDS011;9952;47.122;-1.638;2023-02-28T23:19:22;17.97;;;12.30;;
19609;SDS011;9952;47.122;-1.638;2023-02-28T23:24:08;20.20;;;12.53;;
19609;SDS011;9952;47.122;-1.638;2023-02-28T23:28:51;18.97;;;11.80;;
19609;SDS011;9952;47.122;-1.638;2023-02-28T23:33:32;19.87;;;11.73;;
19609;SDS011;9952;47.122;-1.638;2023-02-28T23:38:13;18.23;;;12.30;;
19609;SDS011;9952;47.122;-1.638;2023-02-28T23:42:53;19.73;;;13.07;;
19609;SDS011;9952;47.122;-1.638;2023-02-28T23:47:34;18.67;;;12.33;;
19609;SDS011;9952;47.122;-1.638;2023-02-28T23:52:15;17.80;;;11.70;;
19609;SDS011;9952;47.122;-1.638;2023-02-28T23:56:56;18.83;;;11.90;;
